createdAt,value
2018-05-06T00:00:52.292Z,8.20
2018-05-06T00:03:20.611Z,8.00
2018-05-06T00:05:48.156Z,8.00
2018-05-06T00:08:15.704Z,8.00
2018-05-06T00:10:43.248Z,7.90
2018-05-06T00:13:10.824Z,8.00
2018-05-06T00:15:38.629Z,8.00
2018-05-06T00:18:06.176Z,8.00
2018-05-06T00:20:34.495Z,7.90
2018-05-06T00:23:02.052Z,7.90
2018-05-06T00:25:29.623Z,7.90
2018-05-06T00:27:57.172Z,7.90
2018-05-06T00:30:25.486Z,7.80
2018-05-06T00:32:53.036Z,7.80
2018-05-06T00:35:20.584Z,7.80
2018-05-06T00:37:48.164Z,7.80
2018-05-06T00:40:15.718Z,7.90
2018-05-06T00:42:43.264Z,7.90
2018-05-06T00:45:10.812Z,8.00
2018-05-06T00:47:39.125Z,8.00
2018-05-06T00:50:06.708Z,8.00
2018-05-06T00:52:34.275Z,7.90
2018-05-06T00:55:01.827Z,7.90
2018-05-06T00:57:29.373Z,7.80
2018-05-06T00:59:56.916Z,7.70
2018-05-06T01:02:24.477Z,7.70
2018-05-06T01:04:52.024Z,7.90
2018-05-06T01:07:19.576Z,7.90
2018-05-06T01:09:47.130Z,8.00
2018-05-06T01:12:14.684Z,7.90
2018-05-06T01:14:42.233Z,7.90
2018-05-06T01:17:09.779Z,7.90
2018-05-06T01:19:37.352Z,7.90
2018-05-06T01:22:04.904Z,7.80
2018-05-06T01:24:32.449Z,7.80
2018-05-06T01:26:59.995Z,7.80
2018-05-06T01:29:28.309Z,7.60
2018-05-06T01:31:55.880Z,7.60
2018-05-06T01:34:23.440Z,7.60
2018-05-06T01:36:50.996Z,7.60
2018-05-06T01:39:18.541Z,7.70
2018-05-06T01:41:46.089Z,7.80
2018-05-06T01:44:13.662Z,7.90
2018-05-06T01:46:41.226Z,7.80
2018-05-06T01:49:08.784Z,7.80
2018-05-06T01:51:36.331Z,7.80
2018-05-06T01:54:03.876Z,7.60
2018-05-06T01:56:31.449Z,7.40
2018-05-06T01:58:59.002Z,7.30
2018-05-06T02:01:26.548Z,7.30
2018-05-06T02:03:54.097Z,7.40
2018-05-06T02:06:21.646Z,7.60
2018-05-06T02:08:49.212Z,7.50
2018-05-06T02:11:16.761Z,7.50
2018-05-06T02:13:44.386Z,7.60
2018-05-06T02:16:11.879Z,7.70
2018-05-06T02:18:40.192Z,7.70
2018-05-06T02:21:07.773Z,7.60
2018-05-06T02:23:35.324Z,7.60
2018-05-06T02:26:02.875Z,7.70
2018-05-06T02:28:30.423Z,7.80
2018-05-06T02:30:57.973Z,7.90
2018-05-06T02:33:25.544Z,7.90
2018-05-06T02:35:53.086Z,7.90
2018-05-06T02:38:20.634Z,8.00
2018-05-06T02:40:48.956Z,8.10
2018-05-06T02:43:16.503Z,8.10
2018-05-06T02:45:44.088Z,8.20
2018-05-06T02:48:11.644Z,8.30
2018-05-06T02:50:39.192Z,8.30
2018-05-06T02:53:06.742Z,8.40
2018-05-06T02:55:34.293Z,8.40
2018-05-06T02:58:01.864Z,8.60
2018-05-06T03:00:29.411Z,8.50
2018-05-06T03:02:56.955Z,8.60
2018-05-06T03:05:24.509Z,8.60
2018-05-06T03:07:52.061Z,8.70
2018-05-06T03:10:19.624Z,8.70
2018-05-06T03:12:47.176Z,8.80
2018-05-06T03:15:14.719Z,8.70
2018-05-06T03:17:42.268Z,8.70
2018-05-06T03:20:09.816Z,8.80
2018-05-06T03:22:37.388Z,8.80
2018-05-06T03:25:04.933Z,8.80
2018-05-06T03:27:32.480Z,8.80
2018-05-06T03:30:00.025Z,8.90
2018-05-06T03:32:27.569Z,8.90
2018-05-06T03:34:55.140Z,8.90
2018-05-06T03:37:22.684Z,9.00
2018-05-06T03:39:50.228Z,9.00
2018-05-06T03:42:17.784Z,9.00
2018-05-06T03:44:45.324Z,9.00
2018-05-06T03:47:12.901Z,9.10
2018-05-06T03:49:40.456Z,9.20
2018-05-06T03:52:08.004Z,9.20
2018-05-06T03:54:35.553Z,9.20
2018-05-06T03:57:14.692Z,9.10
2018-05-06T03:59:53.944Z,9.20
2018-05-06T04:05:20.684Z,9.40
2018-05-06T04:07:48.236Z,9.40
2018-05-06T04:10:15.804Z,9.40
2018-05-06T04:12:44.115Z,9.60
2018-05-06T04:15:11.669Z,9.60
2018-05-06T04:17:39.220Z,9.70
2018-05-06T04:20:06.777Z,9.60
2018-05-06T04:22:34.376Z,9.80
2018-05-06T04:25:01.927Z,9.80
2018-05-06T04:27:29.477Z,9.80
2018-05-06T04:29:57.798Z,9.90
2018-05-06T04:32:25.347Z,9.90
2018-05-06T04:34:52.929Z,9.80
2018-05-06T04:37:20.479Z,9.90
2018-05-06T04:39:48.026Z,9.90
2018-05-06T04:42:15.580Z,10.10
2018-05-06T04:44:43.142Z,10.20
2018-05-06T04:47:10.717Z,10.20
2018-05-06T04:49:38.267Z,10.40
2018-05-06T04:52:05.824Z,10.60
2018-05-06T04:54:33.372Z,10.60
2018-05-06T04:57:00.925Z,10.70
2018-05-06T04:59:28.510Z,10.80
2018-05-06T05:01:56.068Z,10.90
2018-05-06T05:04:23.616Z,11.10
2018-05-06T05:06:51.168Z,11.10
2018-05-06T05:09:18.716Z,11.10
2018-05-06T05:11:46.292Z,11.30
2018-05-06T05:14:13.848Z,11.40
2018-05-06T05:16:41.404Z,11.40
2018-05-06T05:19:08.952Z,11.30
2018-05-06T05:21:36.508Z,11.40
2018-05-06T05:24:04.870Z,11.40
2018-05-06T05:26:32.420Z,11.60
2018-05-06T05:28:59.972Z,11.80
2018-05-06T05:31:27.524Z,11.80
2018-05-06T05:33:55.843Z,11.90
2018-05-06T05:36:23.424Z,11.90
2018-05-06T05:38:50.978Z,11.90
2018-05-06T05:41:18.536Z,11.90
2018-05-06T05:43:46.083Z,11.90
2018-05-06T05:46:13.633Z,12.00
2018-05-06T05:48:41.212Z,12.20
2018-05-06T05:51:08.772Z,12.10
2018-05-06T05:53:36.332Z,12.30
2018-05-06T05:56:03.880Z,12.50
2018-05-06T05:58:31.440Z,12.50
2018-05-06T06:00:59.017Z,12.50
2018-05-06T06:03:26.600Z,12.60
2018-05-06T06:05:54.148Z,12.90
2018-05-06T06:08:21.708Z,13.20
2018-05-06T06:10:49.276Z,13.40
2018-05-06T06:13:16.869Z,13.70
2018-05-06T06:15:44.422Z,14.00
2018-05-06T06:18:12.168Z,14.20
2018-05-06T06:20:39.720Z,14.50
2018-05-06T06:23:07.272Z,14.80
2018-05-06T06:25:34.844Z,14.90
2018-05-06T06:28:02.395Z,14.70
2018-05-06T06:30:29.948Z,14.60
2018-05-06T06:32:57.524Z,14.90
2018-05-06T06:35:25.083Z,15.30
2018-05-06T06:37:52.664Z,15.50
2018-05-06T06:40:20.231Z,15.70
2018-05-06T06:42:47.780Z,16.00
2018-05-06T06:45:15.332Z,15.90
2018-05-06T06:47:42.884Z,15.50
2018-05-06T06:50:10.466Z,15.40
2018-05-06T06:52:38.018Z,15.30
2018-05-06T06:55:05.564Z,16.00
2018-05-06T06:57:33.120Z,16.00
2018-05-06T07:00:00.674Z,16.30
2018-05-06T07:02:28.260Z,16.60
2018-05-06T07:04:55.814Z,16.30
2018-05-06T07:07:23.374Z,16.40
2018-05-06T07:09:50.927Z,16.40
2018-05-06T07:12:18.480Z,16.20
2018-05-06T07:14:46.063Z,16.40
2018-05-06T07:17:13.621Z,16.40
2018-05-06T07:19:41.948Z,15.90
2018-05-06T07:22:09.504Z,15.90
2018-05-06T07:24:37.067Z,16.20
2018-05-06T07:27:05.412Z,16.20
2018-05-06T07:29:32.959Z,16.20
2018-05-06T07:32:00.517Z,16.40
2018-05-06T07:34:28.836Z,16.60
2018-05-06T07:36:56.386Z,16.60
2018-05-06T07:39:23.969Z,16.90
2018-05-06T07:41:51.521Z,17.20
2018-05-06T07:44:19.076Z,17.50
2018-05-06T07:46:46.625Z,17.90
2018-05-06T07:49:14.180Z,18.20
2018-05-06T07:51:41.762Z,17.50
2018-05-06T07:54:09.312Z,17.10
2018-05-06T07:56:36.869Z,16.80
2018-05-06T07:59:04.428Z,16.60
2018-05-06T08:01:31.990Z,16.80
2018-05-06T08:04:00.341Z,16.70
2018-05-06T08:06:27.900Z,16.70
2018-05-06T08:08:55.452Z,17.00
2018-05-06T08:11:24.319Z,17.30
2018-05-06T08:13:52.732Z,17.10
2018-05-06T08:16:20.315Z,17.00
2018-05-06T08:18:47.877Z,17.20
2018-05-06T08:21:15.431Z,17.20
2018-05-06T08:23:42.984Z,17.50
2018-05-06T08:26:10.536Z,17.60
2018-05-06T08:28:38.112Z,17.40
2018-05-06T08:31:05.712Z,17.80
2018-05-06T08:33:33.240Z,17.80
2018-05-06T08:36:00.792Z,17.60
2018-05-06T08:38:28.354Z,17.80
2018-05-06T08:40:56.708Z,18.50
2018-05-06T08:43:24.260Z,18.40
2018-05-06T08:45:51.893Z,18.50
2018-05-06T08:48:19.413Z,18.30
2018-05-06T08:50:46.972Z,18.10
2018-05-06T08:53:14.552Z,18.70
2018-05-06T08:55:42.105Z,18.60
2018-05-06T08:58:09.682Z,19.00
2018-05-06T09:00:37.235Z,19.10
2018-05-06T09:03:04.798Z,18.60
2018-05-06T09:05:32.377Z,18.30
2018-05-06T09:07:59.936Z,18.40
2018-05-06T09:10:27.523Z,18.20
2018-05-06T09:12:55.071Z,18.00
2018-05-06T09:15:22.639Z,17.70
2018-05-06T09:17:50.212Z,17.80
2018-05-06T09:20:17.768Z,18.30
2018-05-06T09:22:45.402Z,18.70
2018-05-06T09:25:12.959Z,19.00
2018-05-06T09:27:40.516Z,18.90
2018-05-06T09:30:08.088Z,19.10
2018-05-06T09:32:35.641Z,18.90
2018-05-06T09:35:03.209Z,19.00
2018-05-06T09:37:30.779Z,18.90
2018-05-06T09:39:58.337Z,18.80
2018-05-06T09:42:26.676Z,18.50
2018-05-06T09:44:54.232Z,18.40
2018-05-06T09:47:21.793Z,18.20
2018-05-06T09:49:49.343Z,18.30
2018-05-06T09:52:16.896Z,18.30
2018-05-06T09:54:44.464Z,18.30
2018-05-06T09:57:12.028Z,18.60
2018-05-06T09:59:39.576Z,19.00
2018-05-06T10:02:07.210Z,19.50
2018-05-06T10:04:34.708Z,19.40
2018-05-06T10:07:02.261Z,19.70
2018-05-06T10:09:29.816Z,19.30
2018-05-06T10:11:57.372Z,19.50
2018-05-06T10:14:24.923Z,19.40
2018-05-06T10:16:52.496Z,19.70
2018-05-06T10:19:20.048Z,20.00
2018-05-06T10:21:47.604Z,20.20
2018-05-06T10:24:15.155Z,19.90
2018-05-06T10:26:43.476Z,19.40
2018-05-06T10:29:11.056Z,19.40
2018-05-06T10:31:38.612Z,19.60
2018-05-06T10:34:06.169Z,19.70
2018-05-06T10:36:33.720Z,19.80
2018-05-06T10:39:01.272Z,20.60
2018-05-06T10:41:28.840Z,20.20
2018-05-06T10:43:56.454Z,20.10
2018-05-06T10:46:23.977Z,20.30
2018-05-06T10:48:51.533Z,20.40
2018-05-06T10:51:19.111Z,20.70
2018-05-06T10:53:46.726Z,20.30
2018-05-06T10:56:14.276Z,19.80
2018-05-06T10:58:41.829Z,19.80
2018-05-06T11:01:10.148Z,20.20
2018-05-06T11:03:37.701Z,20.20
2018-05-06T11:06:05.275Z,20.60
2018-05-06T11:08:32.851Z,20.50
2018-05-06T11:11:00.403Z,20.70
2018-05-06T11:13:27.960Z,20.40
2018-05-06T11:15:55.513Z,20.00
2018-05-06T11:18:23.084Z,20.20
2018-05-06T11:20:50.675Z,20.00
2018-05-06T11:23:19.014Z,19.70
2018-05-06T11:25:46.573Z,19.70
2018-05-06T11:28:14.132Z,19.90
2018-05-06T11:30:41.708Z,19.90
2018-05-06T11:33:10.032Z,19.60
2018-05-06T11:35:37.591Z,19.60
2018-05-06T11:38:05.149Z,19.60
2018-05-06T11:40:32.696Z,19.80
2018-05-06T11:43:00.272Z,19.80
2018-05-06T11:45:27.830Z,19.80
2018-05-06T11:47:55.384Z,19.50
2018-05-06T11:50:22.933Z,19.70
2018-05-06T11:52:50.481Z,19.50
2018-05-06T11:55:18.057Z,19.50
2018-05-06T11:57:45.614Z,19.80
2018-05-06T12:00:13.168Z,20.00
2018-05-06T12:02:40.722Z,19.80
2018-05-06T12:05:08.304Z,20.40
2018-05-06T12:07:35.876Z,20.10
2018-05-06T12:10:03.471Z,20.00
2018-05-06T12:12:31.092Z,20.00
2018-05-06T12:15:00.173Z,20.30
2018-05-06T12:17:27.754Z,20.30
2018-05-06T12:19:55.304Z,20.20
2018-05-06T12:22:22.861Z,20.10
2018-05-06T12:24:50.416Z,20.30
2018-05-06T12:27:17.967Z,20.40
2018-05-06T12:29:45.536Z,20.30
2018-05-06T12:32:13.120Z,20.60
2018-05-06T12:34:40.671Z,20.30
2018-05-06T12:37:08.228Z,20.30
2018-05-06T12:39:36.573Z,20.80
2018-05-06T12:42:04.148Z,20.80
2018-05-06T12:44:31.704Z,20.90
2018-05-06T12:46:59.266Z,20.70
2018-05-06T12:49:26.890Z,20.90
2018-05-06T12:51:54.416Z,21.00
2018-05-06T12:54:21.992Z,20.90
2018-05-06T12:56:49.544Z,21.10
2018-05-06T12:59:17.109Z,21.10
2018-05-06T13:01:44.659Z,21.00
2018-05-06T13:04:12.212Z,20.80
2018-05-06T13:06:39.804Z,20.70
2018-05-06T13:09:07.360Z,21.10
2018-05-06T13:11:34.912Z,21.10
2018-05-06T13:14:02.468Z,20.50
2018-05-06T13:16:30.017Z,20.90
2018-05-06T13:18:57.596Z,20.70
2018-05-06T13:21:25.148Z,20.60
2018-05-06T13:23:52.700Z,20.40
2018-05-06T13:26:20.248Z,20.50
2018-05-06T13:28:47.799Z,20.90
2018-05-06T13:31:15.380Z,20.90
2018-05-06T13:33:42.932Z,21.00
2018-05-06T13:36:10.487Z,21.00
2018-05-06T13:38:38.052Z,21.10
2018-05-06T13:41:05.605Z,20.90
2018-05-06T13:43:33.188Z,21.00
2018-05-06T13:46:00.812Z,21.00
2018-05-06T13:48:28.360Z,21.10
2018-05-06T13:50:55.916Z,20.90
2018-05-06T13:53:23.483Z,20.70
2018-05-06T13:55:51.066Z,20.80
2018-05-06T13:58:18.638Z,20.60
2018-05-06T14:00:46.193Z,20.60
2018-05-06T14:03:13.754Z,20.50
2018-05-06T14:05:41.328Z,20.30
2018-05-06T14:08:08.900Z,20.30
2018-05-06T14:10:37.543Z,20.40
2018-05-06T14:13:05.292Z,20.40
2018-05-06T14:15:32.849Z,20.40
2018-05-06T14:18:00.968Z,20.20
2018-05-06T14:20:29.712Z,20.20
2018-05-06T14:22:57.280Z,20.10
2018-05-06T14:25:24.838Z,20.10
2018-05-06T14:27:52.697Z,20.00
2018-05-06T14:30:20.316Z,20.00
2018-05-06T14:32:47.908Z,20.00
2018-05-06T14:35:15.476Z,20.10
2018-05-06T14:37:43.029Z,19.90
2018-05-06T14:40:10.582Z,19.90
2018-05-06T14:42:38.142Z,19.90
2018-05-06T14:45:05.729Z,20.00
2018-05-06T14:47:45.241Z,20.20
2018-05-06T14:50:12.825Z,20.10
2018-05-06T14:52:40.376Z,20.20
2018-05-06T14:55:09.436Z,20.30
2018-05-06T14:57:36.999Z,20.30
2018-05-06T15:00:04.553Z,20.30
2018-05-06T15:02:32.148Z,20.40
2018-05-06T15:04:59.701Z,20.30
2018-05-06T15:07:27.256Z,20.20
2018-05-06T15:09:55.572Z,20.30
2018-05-06T15:12:23.897Z,20.40
2018-05-06T15:14:51.472Z,20.30
2018-05-06T15:17:19.044Z,20.20
2018-05-06T15:19:47.376Z,20.30
2018-05-06T15:22:14.930Z,20.20
2018-05-06T15:24:42.491Z,20.20
2018-05-06T15:27:10.153Z,20.30
2018-05-06T15:29:37.711Z,20.20
2018-05-06T15:32:05.276Z,20.10
2018-05-06T15:34:32.833Z,20.10
2018-05-06T15:37:00.388Z,20.20
2018-05-06T15:39:27.968Z,20.10
2018-05-06T15:41:55.524Z,20.10
2018-05-06T15:44:23.076Z,20.10
2018-05-06T15:46:50.627Z,20.20
2018-05-06T15:49:18.176Z,20.20
2018-05-06T15:51:45.759Z,20.10
2018-05-06T15:54:13.313Z,20.00
2018-05-06T15:56:40.870Z,20.10
2018-05-06T15:59:08.450Z,20.10
2018-05-06T16:01:36.060Z,20.10
2018-05-06T16:04:16.312Z,20.10
2018-05-06T16:06:43.864Z,20.10
2018-05-06T16:09:11.439Z,20.10
2018-05-06T16:11:38.994Z,20.20
2018-05-06T16:14:06.544Z,20.20
2018-05-06T16:16:34.100Z,20.10
2018-05-06T16:19:01.652Z,20.00
2018-05-06T16:21:29.229Z,20.00
2018-05-06T16:23:57.552Z,19.80
2018-05-06T16:26:25.105Z,19.80
2018-05-06T16:28:52.661Z,19.80
2018-05-06T16:31:20.211Z,19.70
2018-05-06T16:33:47.792Z,19.60
2018-05-06T16:36:15.341Z,19.60
2018-05-06T16:38:42.900Z,19.60
2018-05-06T16:41:10.449Z,19.60
2018-05-06T16:43:38.003Z,19.50
2018-05-06T16:46:05.591Z,19.50
2018-05-06T16:48:33.913Z,19.50
2018-05-06T16:51:01.476Z,19.50
2018-05-06T16:53:29.032Z,19.40
2018-05-06T16:55:56.600Z,19.60
2018-05-06T16:58:24.168Z,19.50
2018-05-06T17:00:51.720Z,19.60
2018-05-06T17:03:19.276Z,19.50
2018-05-06T17:05:46.840Z,19.50
2018-05-06T17:08:14.401Z,19.40
2018-05-06T17:10:41.980Z,19.40
2018-05-06T17:13:10.299Z,19.30
2018-05-06T17:15:37.855Z,19.30
2018-05-06T17:18:05.404Z,19.30
2018-05-06T17:20:32.952Z,19.30
2018-05-06T17:23:00.631Z,19.20
2018-05-06T17:25:28.947Z,19.00
2018-05-06T17:27:56.505Z,19.00
2018-05-06T17:30:24.056Z,18.90
2018-05-06T17:32:51.615Z,18.80
2018-05-06T17:35:19.193Z,18.80
2018-05-06T17:37:46.755Z,18.70
2018-05-06T17:40:15.177Z,18.70
2018-05-06T17:42:42.783Z,18.70
2018-05-06T17:45:10.324Z,18.60
2018-05-06T17:47:37.895Z,18.50
2018-05-06T17:50:05.455Z,18.50
2018-05-06T17:52:33.010Z,18.40
2018-05-06T17:55:00.567Z,18.40
2018-05-06T17:57:28.122Z,18.30
2018-05-06T17:59:55.696Z,18.30
2018-05-06T18:02:24.017Z,18.20
2018-05-06T18:04:51.569Z,18.10
2018-05-06T18:07:19.116Z,18.10
2018-05-06T18:09:46.671Z,18.10
2018-05-06T18:12:14.255Z,17.90
2018-05-06T18:14:41.814Z,17.90
2018-05-06T18:17:09.364Z,17.80
2018-05-06T18:19:36.920Z,17.70
2018-05-06T18:22:04.480Z,17.60
2018-05-06T18:24:32.109Z,17.60
2018-05-06T18:26:59.638Z,17.50
2018-05-06T18:29:27.193Z,17.50
2018-05-06T18:31:54.740Z,17.40
2018-05-06T18:34:22.289Z,17.30
2018-05-06T18:36:49.875Z,17.30
2018-05-06T18:39:17.434Z,17.20
2018-05-06T18:41:44.989Z,17.10
2018-05-06T18:44:12.540Z,17.10
2018-05-06T18:46:40.158Z,17.00
2018-05-06T18:49:08.463Z,16.90
2018-05-06T18:51:36.024Z,16.90
2018-05-06T18:54:03.580Z,16.80
2018-05-06T18:56:31.137Z,16.60
2018-05-06T18:58:58.687Z,16.60
2018-05-06T19:01:26.256Z,16.50
2018-05-06T19:03:53.813Z,16.50
2018-05-06T19:06:21.364Z,16.40
2018-05-06T19:08:48.916Z,16.40
2018-05-06T19:11:16.464Z,16.30
2018-05-06T19:13:44.042Z,16.20
2018-05-06T19:16:11.592Z,16.10
2018-05-06T19:18:39.173Z,16.10
2018-05-06T19:21:06.724Z,16.00
2018-05-06T19:23:34.281Z,16.00
2018-05-06T19:26:01.864Z,15.90
2018-05-06T19:28:30.184Z,15.90
2018-05-06T19:30:57.742Z,15.90
2018-05-06T19:33:25.296Z,15.80
2018-05-06T19:35:52.854Z,15.80
2018-05-06T19:38:20.455Z,15.80
2018-05-06T19:40:48.020Z,15.70
2018-05-06T19:43:15.568Z,15.60
2018-05-06T19:45:43.120Z,15.60
2018-05-06T19:48:10.672Z,15.60
2018-05-06T19:50:38.252Z,15.60
2018-05-06T19:53:06.574Z,15.50
2018-05-06T19:55:34.124Z,15.50
2018-05-06T19:58:01.680Z,15.50
2018-05-06T20:00:29.231Z,15.40
2018-05-06T20:02:56.815Z,15.30
2018-05-06T20:05:24.372Z,15.40
2018-05-06T20:07:51.928Z,15.20
2018-05-06T20:10:19.484Z,15.20
2018-05-06T20:12:47.080Z,15.10
2018-05-06T20:15:15.409Z,15.20
2018-05-06T20:17:42.959Z,15.20
2018-05-06T20:20:10.508Z,15.10
2018-05-06T20:22:38.070Z,15.00
2018-05-06T20:25:05.641Z,15.00
2018-05-06T20:27:33.225Z,14.90
2018-05-06T20:30:00.782Z,14.80
2018-05-06T20:32:28.328Z,14.80
2018-05-06T20:34:55.883Z,14.70
2018-05-06T20:37:23.437Z,14.70
2018-05-06T20:39:51.018Z,14.70
2018-05-06T20:42:18.580Z,14.70
2018-05-06T20:44:46.137Z,14.70
2018-05-06T20:47:13.689Z,14.60
2018-05-06T20:49:41.248Z,14.50
2018-05-06T20:52:08.824Z,14.50
2018-05-06T20:54:36.380Z,14.40
2018-05-06T20:57:03.937Z,14.20
2018-05-06T20:59:31.488Z,14.20
2018-05-06T21:01:59.076Z,14.10
2018-05-06T21:04:26.637Z,14.10
2018-05-06T21:06:54.193Z,14.10
2018-05-06T21:09:21.745Z,14.20
2018-05-06T21:11:49.295Z,14.10
2018-05-06T21:14:16.847Z,14.10
2018-05-06T21:16:44.459Z,14.10
2018-05-06T21:19:12.065Z,14.00
2018-05-06T21:21:39.595Z,14.00
2018-05-06T21:24:07.144Z,14.00
2018-05-06T21:26:34.702Z,13.90
2018-05-06T21:29:02.285Z,13.90
2018-05-06T21:31:29.837Z,13.90
2018-05-06T21:33:57.390Z,13.90
2018-05-06T21:36:24.943Z,13.90
2018-05-06T21:38:52.496Z,13.90
2018-05-06T21:41:20.065Z,13.80
2018-05-06T21:43:48.385Z,13.70
2018-05-06T21:46:15.932Z,13.70
2018-05-06T21:48:43.487Z,13.60
2018-05-06T21:51:11.036Z,13.50
2018-05-06T21:53:38.612Z,13.50
2018-05-06T21:56:06.160Z,13.40
2018-05-06T21:58:33.713Z,13.40
2018-05-06T22:01:01.269Z,13.40
2018-05-06T22:03:28.820Z,13.40
2018-05-06T22:05:56.393Z,13.40
2018-05-06T22:08:23.939Z,13.30
2018-05-06T22:10:51.507Z,13.30
2018-05-06T22:13:19.839Z,13.30
2018-05-06T22:15:47.395Z,13.30
2018-05-06T22:18:14.972Z,13.30
2018-05-06T22:20:43.309Z,13.20
2018-05-06T22:23:10.868Z,13.10
2018-05-06T22:25:38.430Z,13.10
2018-05-06T22:28:05.986Z,13.10
2018-05-06T22:30:33.537Z,13.10
2018-05-06T22:33:01.100Z,13.10
2018-05-06T22:35:28.647Z,13.10
2018-05-06T22:37:56.200Z,13.00
2018-05-06T22:40:23.755Z,13.00
2018-05-06T22:42:52.068Z,13.00
2018-05-06T22:45:19.622Z,13.00
2018-05-06T22:47:47.200Z,13.00
2018-05-06T22:50:14.748Z,13.00
2018-05-06T22:52:42.301Z,12.90
2018-05-06T22:55:09.855Z,12.90
2018-05-06T22:57:37.428Z,12.80
2018-05-06T23:00:05.008Z,12.80
2018-05-06T23:02:32.563Z,12.80
2018-05-06T23:05:00.116Z,12.70
2018-05-06T23:07:27.664Z,12.60
2018-05-06T23:09:55.214Z,12.60
2018-05-06T23:12:22.784Z,12.60
2018-05-06T23:14:50.336Z,12.60
2018-05-06T23:17:17.887Z,12.60
2018-05-06T23:19:45.433Z,12.50
2018-05-06T23:22:13.043Z,12.50
2018-05-06T23:24:40.591Z,12.50
2018-05-06T23:27:08.146Z,12.50
2018-05-06T23:29:35.708Z,12.50
2018-05-06T23:32:03.263Z,12.40
2018-05-06T23:34:30.819Z,12.40
2018-05-06T23:36:58.391Z,12.30
2018-05-06T23:39:25.948Z,12.30
2018-05-06T23:41:53.500Z,12.30
2018-05-06T23:44:21.048Z,12.20
2018-05-06T23:46:48.608Z,12.10
2018-05-06T23:49:16.183Z,12.00
2018-05-06T23:51:44.513Z,12.10
2018-05-06T23:54:12.072Z,12.10
2018-05-06T23:56:39.624Z,12.10
2018-05-06T23:59:07.174Z,12.10
